createdAt,value
2022-10-24T00:00:06.017Z,18.85
2022-10-24T00:02:55.524Z,19.35
2022-10-24T00:05:48.770Z,17.35
2022-10-24T00:08:38.156Z,17.25
2022-10-24T00:11:28.961Z,18.27
2022-10-24T00:14:18.333Z,18.50
2022-10-24T00:17:08.957Z,18.27
2022-10-24T00:19:59.417Z,17.00
2022-10-24T00:22:49.791Z,18.23
2022-10-24T00:25:38.940Z,17.83
2022-10-24T00:28:28.176Z,17.45
2022-10-24T00:31:22.849Z,18.30
2022-10-24T00:34:15.774Z,18.25
2022-10-24T00:37:06.134Z,18.40
2022-10-24T00:39:56.932Z,17.50
2022-10-24T00:42:46.211Z,20.63
2022-10-24T00:45:48.153Z,17.65
2022-10-24T00:48:40.232Z,19.50
2022-10-24T00:51:32.790Z,18.40
2022-10-24T00:54:22.895Z,18.15
2022-10-24T00:57:21.742Z,19.48
2022-10-24T01:00:14.712Z,19.85
2022-10-24T01:03:04.924Z,18.73
2022-10-24T01:06:09.028Z,18.63
2022-10-24T01:09:09.301Z,18.58
2022-10-24T01:12:17.761Z,18.48
2022-10-24T01:15:17.915Z,19.27
2022-10-24T01:18:14.415Z,18.88
2022-10-24T01:21:10.509Z,18.27
2022-10-24T01:24:12.778Z,18.52
2022-10-24T01:27:31.938Z,18.65
2022-10-24T01:30:22.554Z,18.15
2022-10-24T01:33:20.911Z,17.95
2022-10-24T01:36:13.007Z,20.08
2022-10-24T01:39:04.324Z,19.58
2022-10-24T01:41:56.086Z,21.15
2022-10-24T01:44:50.791Z,20.58
2022-10-24T01:47:44.469Z,19.95
2022-10-24T01:50:36.464Z,21.75
2022-10-24T01:53:29.559Z,20.98
2022-10-24T01:56:19.059Z,20.17
2022-10-24T01:59:09.582Z,20.33
2022-10-24T02:02:11.847Z,23.13
2022-10-24T02:05:07.950Z,25.95
2022-10-24T02:07:59.665Z,27.27
2022-10-24T02:10:52.917Z,25.70
2022-10-24T02:13:46.827Z,28.88
2022-10-24T02:16:37.416Z,29.58
2022-10-24T02:19:38.022Z,27.02
2022-10-24T02:22:49.246Z,25.17
2022-10-24T02:25:41.590Z,26.17
2022-10-24T02:28:35.699Z,26.23
2022-10-24T02:31:30.963Z,25.40
2022-10-24T02:34:21.888Z,27.75
2022-10-24T02:37:13.361Z,27.48
2022-10-24T02:40:07.229Z,30.10
2022-10-24T02:42:59.235Z,29.33
2022-10-24T02:45:50.170Z,29.48
2022-10-24T02:48:45.308Z,29.27
2022-10-24T02:51:37.008Z,29.60
2022-10-24T02:54:26.137Z,28.45
2022-10-24T02:57:17.286Z,29.15
2022-10-24T03:00:07.865Z,29.13
2022-10-24T03:02:57.364Z,30.60
2022-10-24T03:05:46.276Z,28.15
2022-10-24T03:08:35.724Z,28.80
2022-10-24T03:11:25.543Z,29.20
2022-10-24T03:14:16.449Z,30.42
2022-10-24T03:17:05.220Z,30.35
2022-10-24T03:19:54.278Z,29.25
2022-10-24T03:22:43.711Z,29.30
2022-10-24T03:25:32.884Z,29.77
2022-10-24T03:28:22.488Z,29.63
2022-10-24T03:31:13.139Z,28.45
2022-10-24T03:34:02.694Z,28.33
2022-10-24T03:36:51.728Z,28.45
2022-10-24T03:39:40.910Z,27.67
2022-10-24T03:42:30.422Z,27.60
2022-10-24T03:45:19.586Z,24.67
2022-10-24T03:48:10.216Z,24.02
2022-10-24T03:50:59.776Z,26.80
2022-10-24T03:53:49.784Z,24.95
2022-10-24T03:56:38.820Z,23.10
2022-10-24T03:59:28.577Z,24.15
2022-10-24T04:02:18.232Z,21.85
2022-10-24T04:05:09.832Z,22.75
2022-10-24T04:07:59.423Z,24.40
2022-10-24T04:10:48.544Z,23.48
2022-10-24T04:13:38.292Z,22.50
2022-10-24T04:16:28.216Z,21.92
2022-10-24T04:19:18.866Z,21.70
2022-10-24T04:22:09.323Z,22.38
2022-10-24T04:24:59.047Z,21.17
2022-10-24T04:27:48.517Z,22.52
2022-10-24T04:30:37.731Z,22.13
2022-10-24T04:33:26.706Z,21.77
2022-10-24T04:36:16.218Z,20.08
2022-10-24T04:39:08.826Z,21.10
2022-10-24T04:41:58.684Z,21.52
2022-10-24T04:44:48.236Z,21.30
2022-10-24T04:47:38.264Z,21.95
2022-10-24T04:50:27.927Z,24.40
2022-10-24T04:53:17.993Z,25.98
2022-10-24T04:56:11.183Z,24.15
2022-10-24T04:59:03.578Z,24.45
2022-10-24T05:01:54.072Z,24.10
2022-10-24T05:04:42.873Z,23.52
2022-10-24T05:07:31.735Z,24.42
2022-10-24T05:10:22.263Z,24.30
2022-10-24T05:13:14.059Z,23.67
2022-10-24T05:16:04.003Z,22.45
2022-10-24T05:18:53.636Z,24.27
2022-10-24T05:21:43.056Z,25.02
2022-10-24T05:24:32.126Z,22.88
2022-10-24T05:27:24.786Z,22.60
2022-10-24T05:30:24.944Z,21.50
2022-10-24T05:33:16.265Z,23.25
2022-10-24T05:36:15.672Z,24.15
2022-10-24T05:39:05.322Z,24.50
2022-10-24T05:41:55.422Z,23.52
2022-10-24T05:44:44.818Z,21.05
2022-10-24T05:47:35.910Z,21.08
2022-10-24T05:50:27.012Z,22.38
2022-10-24T05:53:15.790Z,19.90
2022-10-24T05:56:06.194Z,20.88
2022-10-24T05:58:57.207Z,19.70
2022-10-24T06:01:48.153Z,18.25
2022-10-24T06:04:39.035Z,18.95
2022-10-24T06:07:28.207Z,18.02
2022-10-24T06:10:17.982Z,19.30
2022-10-24T06:13:07.699Z,17.80
2022-10-24T06:15:57.628Z,18.35
2022-10-24T06:18:47.458Z,17.67
2022-10-24T06:21:38.192Z,16.17
2022-10-24T06:24:27.217Z,17.00
2022-10-24T06:27:16.138Z,16.90
2022-10-24T06:30:05.863Z,16.45
2022-10-24T06:32:54.681Z,17.52
2022-10-24T06:35:43.646Z,17.05
2022-10-24T06:38:34.702Z,16.55
2022-10-24T06:41:23.806Z,17.42
2022-10-24T06:44:13.233Z,17.70
2022-10-24T06:47:01.981Z,18.00
2022-10-24T06:49:50.743Z,16.00
2022-10-24T06:52:40.471Z,17.75
2022-10-24T06:55:31.252Z,16.90
2022-10-24T06:58:20.876Z,15.82
2022-10-24T07:01:11.073Z,16.90
2022-10-24T07:04:00.092Z,15.98
2022-10-24T07:06:48.742Z,16.90
2022-10-24T07:09:38.322Z,16.75
2022-10-24T07:12:28.460Z,15.88
2022-10-24T07:15:17.508Z,15.80
2022-10-24T07:18:06.749Z,16.38
2022-10-24T07:20:55.764Z,16.30
2022-10-24T07:23:44.666Z,15.82
2022-10-24T07:26:34.094Z,15.20
2022-10-24T07:29:25.357Z,15.50
2022-10-24T07:32:14.835Z,16.38
2022-10-24T07:35:05.445Z,17.10
2022-10-24T07:37:55.349Z,17.35
2022-10-24T07:40:45.198Z,17.27
2022-10-24T07:43:35.341Z,17.98
2022-10-24T07:46:26.285Z,17.80
2022-10-24T07:49:15.615Z,17.35
2022-10-24T07:52:04.460Z,17.27
2022-10-24T07:54:55.580Z,17.98
2022-10-24T07:57:44.400Z,16.60
2022-10-24T08:00:35.084Z,16.75
2022-10-24T08:03:25.753Z,17.13
2022-10-24T08:06:17.308Z,15.13
2022-10-24T08:09:08.838Z,14.30
2022-10-24T08:11:58.062Z,15.60
2022-10-24T08:14:47.737Z,15.45
2022-10-24T08:17:38.244Z,14.23
2022-10-24T08:20:30.574Z,16.00
2022-10-24T08:23:24.645Z,15.60
2022-10-24T08:26:16.889Z,14.27
2022-10-24T08:29:10.985Z,15.40
2022-10-24T08:32:00.113Z,14.73
2022-10-24T08:34:49.862Z,14.93
2022-10-24T08:37:41.015Z,18.05
2022-10-24T08:40:30.758Z,15.23
2022-10-24T08:43:21.212Z,16.00
2022-10-24T08:46:25.021Z,17.92
2022-10-24T08:49:21.800Z,17.42
2022-10-24T08:52:20.599Z,16.27
2022-10-24T08:58:30.114Z,16.30
2022-10-24T09:01:29.507Z,18.02
2022-10-24T09:04:22.166Z,15.57
2022-10-24T09:07:19.391Z,17.63
2022-10-24T09:10:18.268Z,17.05
2022-10-24T09:13:14.742Z,16.67
2022-10-24T09:16:03.926Z,16.42
2022-10-24T09:18:55.927Z,16.85
2022-10-24T09:21:46.079Z,17.50
2022-10-24T09:24:40.931Z,18.08
2022-10-24T09:27:34.958Z,17.38
2022-10-24T09:30:30.103Z,19.23
2022-10-24T09:33:30.428Z,18.08
2022-10-24T09:36:21.051Z,17.33
2022-10-24T09:39:29.640Z,17.27
2022-10-24T09:42:24.128Z,17.25
2022-10-24T09:45:39.774Z,18.85
2022-10-24T09:48:32.940Z,19.50
2022-10-24T09:51:34.039Z,18.10
2022-10-24T09:54:28.608Z,18.33
2022-10-24T09:57:19.098Z,19.10
2022-10-24T10:00:22.443Z,16.90
2022-10-24T10:03:24.392Z,19.75
2022-10-24T10:06:18.962Z,18.45
2022-10-24T10:09:15.097Z,19.75
2022-10-24T10:12:04.439Z,19.58
2022-10-24T10:14:54.237Z,19.00
2022-10-24T10:17:51.965Z,20.02
2022-10-24T10:20:44.243Z,19.58
2022-10-24T10:23:36.374Z,19.58
2022-10-24T10:26:28.797Z,18.90
2022-10-24T10:29:25.233Z,21.80
2022-10-24T10:32:24.781Z,20.35
2022-10-24T10:35:21.866Z,18.35
2022-10-24T10:38:25.801Z,18.60
2022-10-24T10:41:40.703Z,20.70
2022-10-24T10:44:52.376Z,20.20
2022-10-24T10:47:52.906Z,21.15
2022-10-24T10:50:48.365Z,21.23
2022-10-24T10:53:44.324Z,20.75
2022-10-24T10:56:38.344Z,22.33
2022-10-24T10:59:36.782Z,21.83
2022-10-24T11:02:33.570Z,21.27
2022-10-24T11:05:34.754Z,20.52
2022-10-24T11:08:47.104Z,20.05
2022-10-24T11:11:41.001Z,20.02
2022-10-24T11:14:36.185Z,22.85
2022-10-24T11:17:26.368Z,20.85
2022-10-24T11:20:19.905Z,21.35
2022-10-24T11:23:13.605Z,21.58
2022-10-24T11:26:08.390Z,22.48
2022-10-24T11:28:59.068Z,24.33
2022-10-24T11:31:50.751Z,24.25
2022-10-24T11:34:42.985Z,20.88
2022-10-24T11:46:44.495Z,21.17
2022-10-24T11:49:37.143Z,22.40
2022-10-24T11:52:28.210Z,20.83
2022-10-24T11:55:20.359Z,21.20
2022-10-24T11:58:12.928Z,21.13
2022-10-24T12:01:19.981Z,20.48
2022-10-24T12:04:41.316Z,19.05
2022-10-24T12:08:04.202Z,22.50
2022-10-24T12:11:11.860Z,20.02
2022-10-24T12:14:19.443Z,20.02
2022-10-24T12:17:50.499Z,19.92
2022-10-24T12:20:42.815Z,22.02
2022-10-24T12:23:33.721Z,20.98
2022-10-24T12:26:31.315Z,21.08
2022-10-24T12:29:25.570Z,20.77
2022-10-24T12:32:37.379Z,21.65
2022-10-24T12:35:59.400Z,21.67
2022-10-24T12:39:10.405Z,20.95
2022-10-24T12:41:59.530Z,24.77
2022-10-24T12:44:50.592Z,23.08
2022-10-24T12:47:40.953Z,26.15
2022-10-24T12:51:07.824Z,23.13
2022-10-24T12:54:06.130Z,23.70
2022-10-24T12:57:28.032Z,23.92
2022-10-24T13:00:25.401Z,23.55
2022-10-24T13:03:18.484Z,20.80
2022-10-24T13:06:13.361Z,22.20
2022-10-24T13:09:29.919Z,21.55
2022-10-24T13:12:45.021Z,23.27
2022-10-24T13:15:45.143Z,23.77
2022-10-24T13:18:47.430Z,25.83
2022-10-24T13:21:46.952Z,22.30
2022-10-24T13:24:38.414Z,26.75
2022-10-24T13:27:33.172Z,23.77
2022-10-24T13:30:29.155Z,26.48
2022-10-24T13:33:53.802Z,26.27
2022-10-24T13:36:44.699Z,26.17
2022-10-24T13:39:40.316Z,28.02
2022-10-24T13:42:39.084Z,28.35
2022-10-24T13:45:35.869Z,25.95
2022-10-24T13:48:28.665Z,27.30
2022-10-24T13:51:25.462Z,25.00
2022-10-24T13:54:21.992Z,25.83
2022-10-24T13:57:35.728Z,25.67
2022-10-24T14:00:28.726Z,25.08
2022-10-24T14:03:22.083Z,24.58
2022-10-24T14:06:11.279Z,25.45
2022-10-24T14:09:09.718Z,25.30
2022-10-24T14:11:59.425Z,25.48
2022-10-24T14:14:51.311Z,24.58
2022-10-24T14:17:40.620Z,27.08
2022-10-24T14:20:33.707Z,22.65
2022-10-24T14:23:28.191Z,23.52
2022-10-24T14:26:20.647Z,21.45
2022-10-24T14:29:23.017Z,22.25
2022-10-24T14:32:17.121Z,21.63
2022-10-24T14:35:07.121Z,20.83
2022-10-24T14:37:57.078Z,25.92
2022-10-24T14:40:49.517Z,19.95
2022-10-24T14:43:45.532Z,20.58
2022-10-24T14:46:39.131Z,18.13
2022-10-24T14:49:34.016Z,19.00
2022-10-24T14:52:27.464Z,18.67
2022-10-24T14:55:22.422Z,18.65
2022-10-24T14:58:23.871Z,18.40
2022-10-24T15:01:19.517Z,17.08
2022-10-24T15:04:08.675Z,17.38
2022-10-24T15:06:58.715Z,16.77
2022-10-24T15:09:58.223Z,16.25
2022-10-24T15:12:55.655Z,17.30
2022-10-24T15:15:53.362Z,17.13
2022-10-24T15:18:44.584Z,16.88
2022-10-24T15:21:37.535Z,17.73
2022-10-24T15:24:27.599Z,17.02
2022-10-24T15:27:26.994Z,18.05
2022-10-24T15:30:19.418Z,16.75
2022-10-24T15:33:09.152Z,17.98
2022-10-24T15:35:58.769Z,17.50
2022-10-24T15:38:49.031Z,18.42
2022-10-24T15:41:38.987Z,18.52
2022-10-24T15:44:29.199Z,19.83
2022-10-24T15:47:24.124Z,19.88
2022-10-24T15:50:15.197Z,21.05
2022-10-24T15:53:05.842Z,22.10
2022-10-24T15:55:55.969Z,23.75
2022-10-24T15:58:45.600Z,22.40
2022-10-24T16:01:38.553Z,20.10
2022-10-24T16:04:34.154Z,23.45
2022-10-24T16:07:23.284Z,20.17
2022-10-24T16:10:15.153Z,17.88
2022-10-24T16:13:04.552Z,18.92
2022-10-24T16:15:53.932Z,17.35
2022-10-24T16:18:43.346Z,18.10
2022-10-24T16:21:34.482Z,18.80
2022-10-24T16:24:23.293Z,17.15
2022-10-24T16:27:12.055Z,16.33
2022-10-24T16:30:01.440Z,16.60
2022-10-24T16:32:51.007Z,16.35
2022-10-24T16:35:42.269Z,15.60
2022-10-24T16:38:34.798Z,15.48
2022-10-24T16:41:25.539Z,13.93
2022-10-24T16:44:15.144Z,14.55
2022-10-24T16:47:04.553Z,16.52
2022-10-24T16:49:57.107Z,16.60
2022-10-24T16:52:47.247Z,15.38
2022-10-24T16:55:40.070Z,15.88
2022-10-24T16:58:30.979Z,16.00
2022-10-24T17:01:26.395Z,16.95
2022-10-24T17:04:15.583Z,19.02
2022-10-24T17:07:08.468Z,18.17
2022-10-24T17:09:58.302Z,19.08
2022-10-24T17:12:49.060Z,19.35
2022-10-24T17:15:38.456Z,18.77
2022-10-24T17:18:27.641Z,18.10
2022-10-24T17:21:17.804Z,13.38
2022-10-24T17:24:09.417Z,14.98
2022-10-24T17:27:01.561Z,13.15
2022-10-24T17:29:53.781Z,10.85
2022-10-24T17:32:44.560Z,12.05
2022-10-24T17:35:34.665Z,12.02
2022-10-24T17:38:33.149Z,9.82
2022-10-24T17:41:25.301Z,9.05
2022-10-24T17:44:18.542Z,8.80
2022-10-24T17:47:11.191Z,9.25
2022-10-24T17:50:00.808Z,6.90
2022-10-24T17:52:52.513Z,7.05
2022-10-24T17:55:46.694Z,7.13
2022-10-24T17:58:37.584Z,8.35
2022-10-24T18:01:31.255Z,7.93
2022-10-24T18:04:23.039Z,6.03
2022-10-24T18:07:13.075Z,6.20
2022-10-24T18:10:11.955Z,5.40
2022-10-24T18:13:02.838Z,5.97
2022-10-24T18:15:58.182Z,7.97
2022-10-24T18:18:49.582Z,5.00
2022-10-24T18:21:40.434Z,5.57
2022-10-24T18:24:29.264Z,5.22
2022-10-24T18:27:18.557Z,5.93
2022-10-24T18:30:08.087Z,4.93
2022-10-24T18:32:57.337Z,5.95
2022-10-24T18:35:46.512Z,5.85
2022-10-24T18:38:37.427Z,5.53
2022-10-24T18:41:33.699Z,5.38
2022-10-24T18:44:27.680Z,9.13
2022-10-24T18:47:20.741Z,6.28
2022-10-24T18:50:14.612Z,6.53
2022-10-24T18:53:05.253Z,5.35
2022-10-24T18:55:56.002Z,5.32
2022-10-24T18:58:46.713Z,5.85
2022-10-24T19:01:39.530Z,5.75
2022-10-24T19:04:29.480Z,4.95
2022-10-24T19:07:22.414Z,6.00
2022-10-24T19:10:19.227Z,5.18
2022-10-24T19:13:11.284Z,5.47
2022-10-24T19:16:02.091Z,5.93
2022-10-24T19:18:53.332Z,6.03
2022-10-24T19:21:43.488Z,5.68
2022-10-24T19:24:34.336Z,5.72
2022-10-24T19:27:23.699Z,6.93
2022-10-24T19:30:15.210Z,5.43
2022-10-24T19:33:04.577Z,5.93
2022-10-24T19:35:54.103Z,5.53
2022-10-24T19:38:43.832Z,6.18
2022-10-24T19:41:33.560Z,6.00
2022-10-24T19:44:22.919Z,6.03
2022-10-24T19:47:14.175Z,6.03
2022-10-24T19:50:03.927Z,6.57
2022-10-24T19:52:52.982Z,5.35
2022-10-24T19:55:42.405Z,6.13
2022-10-24T19:58:32.129Z,6.35
2022-10-24T20:01:24.863Z,6.13
2022-10-24T20:04:16.014Z,6.38
2022-10-24T20:07:05.157Z,6.00
2022-10-24T20:09:54.713Z,6.72
2022-10-24T20:12:44.279Z,6.50
2022-10-24T20:15:33.943Z,6.35
2022-10-24T20:18:23.516Z,6.88
2022-10-24T20:21:15.331Z,6.93
2022-10-24T20:24:04.264Z,7.65
2022-10-24T20:26:53.632Z,7.10
2022-10-24T20:29:46.378Z,6.93
2022-10-24T20:32:37.042Z,6.97
2022-10-24T20:35:26.962Z,6.60
2022-10-24T20:38:18.134Z,8.98
2022-10-24T20:41:08.066Z,7.95
2022-10-24T20:43:57.386Z,7.57
2022-10-24T20:46:46.950Z,7.45
2022-10-24T20:49:36.398Z,8.15
2022-10-24T20:52:25.734Z,7.55
2022-10-24T20:55:25.396Z,7.72
2022-10-24T20:58:25.458Z,7.30
2022-10-24T21:01:15.674Z,6.90
2022-10-24T21:04:05.385Z,7.40
2022-10-24T21:06:54.982Z,7.65
2022-10-24T21:09:44.016Z,7.55
2022-10-24T21:12:35.159Z,7.45
2022-10-24T21:15:24.038Z,6.55
2022-10-24T21:18:13.735Z,8.05
2022-10-24T21:21:08.090Z,7.78
2022-10-24T21:24:02.440Z,7.00
2022-10-24T21:26:56.031Z,7.90
2022-10-24T21:29:47.281Z,8.00
2022-10-24T21:32:36.117Z,8.48
2022-10-24T21:35:24.792Z,7.88
2022-10-24T21:38:13.656Z,8.35
2022-10-24T21:41:03.359Z,7.65
2022-10-24T21:43:53.558Z,6.85
2022-10-24T21:46:44.634Z,9.18
2022-10-24T21:49:33.527Z,8.07
2022-10-24T21:52:22.266Z,8.18
2022-10-24T21:55:11.904Z,8.05
2022-10-24T21:58:01.533Z,8.55
2022-10-24T22:00:51.031Z,8.38
2022-10-24T22:03:42.799Z,9.15
2022-10-24T22:06:33.411Z,10.60
2022-10-24T22:09:25.449Z,9.73
2022-10-24T22:12:14.486Z,9.32
2022-10-24T22:15:04.083Z,8.70
2022-10-24T22:17:53.476Z,8.60
2022-10-24T22:20:44.292Z,8.85
2022-10-24T22:23:33.673Z,8.95
2022-10-24T23:47:14.668Z,8.40
2022-10-24T23:50:12.674Z,7.97
2022-10-24T23:53:12.834Z,8.75
2022-10-24T23:56:02.839Z,9.13
2022-10-24T23:58:52.728Z,8.80
